createdAt,value
2022-10-19T00:01:24.081Z,82.84
2022-10-19T00:03:54.913Z,82.96
2022-10-19T00:06:29.129Z,83.02
2022-10-19T00:09:18.555Z,82.94
2022-10-19T00:11:49.026Z,82.78
2022-10-19T00:14:21.355Z,82.86
2022-10-19T00:16:51.053Z,83.12
2022-10-19T00:19:24.027Z,83.23
2022-10-19T00:21:52.763Z,83.45
2022-10-19T00:24:21.674Z,83.72
2022-10-19T00:26:49.516Z,83.73
2022-10-19T00:29:17.667Z,83.50
2022-10-19T00:31:45.505Z,83.34
2022-10-19T00:34:13.374Z,83.40
2022-10-19T00:36:41.879Z,83.41
2022-10-19T00:39:15.253Z,83.46
2022-10-19T00:41:45.465Z,83.58
2022-10-19T00:44:13.242Z,83.66
2022-10-19T00:46:44.321Z,83.90
2022-10-19T00:49:22.605Z,83.85
2022-10-19T00:52:12.300Z,83.86
2022-10-19T00:54:42.359Z,84.19
2022-10-19T00:57:10.738Z,84.39
2022-10-19T00:59:41.227Z,84.68
2022-10-19T01:02:09.019Z,85.02
2022-10-19T01:04:40.368Z,85.25
2022-10-19T01:07:09.173Z,85.28
2022-10-19T01:09:36.961Z,85.14
2022-10-19T01:12:31.002Z,85.19
2022-10-19T01:15:03.939Z,85.17
2022-10-19T01:17:51.320Z,85.42
2022-10-19T01:20:25.430Z,85.54
2022-10-19T01:23:14.939Z,85.48
2022-10-19T01:26:09.308Z,85.60
2022-10-19T01:28:54.300Z,85.70
2022-10-19T01:32:01.104Z,85.87
2022-10-19T01:34:41.379Z,86.05
2022-10-19T01:37:09.183Z,86.11
2022-10-19T01:40:00.826Z,86.31
2022-10-19T01:42:46.699Z,86.47
2022-10-19T01:45:26.006Z,87.00
2022-10-19T01:48:05.869Z,87.27
2022-10-19T01:50:48.993Z,87.32
2022-10-19T01:53:20.032Z,87.38
2022-10-19T01:55:51.817Z,87.35
2022-10-19T01:58:26.528Z,87.53
2022-10-19T02:05:03.366Z,87.81
2022-10-19T02:07:32.841Z,88.21
2022-10-19T02:10:01.234Z,88.49
2022-10-19T02:12:33.093Z,88.94
2022-10-19T02:15:09.865Z,89.37
2022-10-19T02:17:44.147Z,89.53
2022-10-19T02:20:13.358Z,89.60
2022-10-19T02:22:41.714Z,89.61
2022-10-19T02:25:10.622Z,89.58
2022-10-19T02:27:42.183Z,89.61
2022-10-19T02:30:13.056Z,89.51
2022-10-19T02:32:41.813Z,89.32
2022-10-19T02:35:12.636Z,89.34
2022-10-19T02:37:40.921Z,89.04
2022-10-19T02:40:09.928Z,89.07
2022-10-19T02:43:04.147Z,89.06
2022-10-19T02:45:38.425Z,89.41
2022-10-19T02:48:13.782Z,89.44
2022-10-19T02:50:46.476Z,89.43
2022-10-19T02:53:15.384Z,89.47
2022-10-19T02:55:43.369Z,89.33
2022-10-19T02:58:11.219Z,89.24
2022-10-19T03:00:39.095Z,89.18
2022-10-19T03:03:07.012Z,89.17
2022-10-19T03:05:34.726Z,89.08
2022-10-19T03:08:02.620Z,88.65
2022-10-19T03:10:30.490Z,88.43
2022-10-19T03:12:58.737Z,88.30
2022-10-19T03:15:29.216Z,88.25
2022-10-19T03:17:57.297Z,88.31
2022-10-19T03:20:25.359Z,88.55
2022-10-19T03:25:25.930Z,88.53
2022-10-19T03:27:54.346Z,88.16
2022-10-19T03:30:22.326Z,87.79
2022-10-19T03:32:50.869Z,87.62
2022-10-19T03:35:18.862Z,87.46
2022-10-19T03:37:46.801Z,87.31
2022-10-19T03:40:14.775Z,87.20
2022-10-19T03:42:42.603Z,86.97
2022-10-19T03:45:10.610Z,86.89
2022-10-19T03:47:38.455Z,86.85
2022-10-19T03:50:07.222Z,86.68
2022-10-19T03:52:35.113Z,86.42
2022-10-19T03:55:02.936Z,86.30
2022-10-19T03:57:30.816Z,86.15
2022-10-19T03:59:58.880Z,85.89
2022-10-19T04:02:26.788Z,85.64
2022-10-19T04:04:54.532Z,85.52
2022-10-19T04:07:22.367Z,85.44
2022-10-19T04:09:50.158Z,85.26
2022-10-19T04:12:17.919Z,85.28
2022-10-19T04:14:56.766Z,85.25
2022-10-19T04:17:26.140Z,85.24
2022-10-19T04:19:54.070Z,85.21
2022-10-19T04:22:21.908Z,85.11
2022-10-19T04:24:49.795Z,85.02
2022-10-19T04:27:17.712Z,84.82
2022-10-19T04:29:45.667Z,84.55
2022-10-19T04:32:13.424Z,84.47
2022-10-19T04:34:41.199Z,84.18
2022-10-19T04:37:08.958Z,83.94
2022-10-19T04:39:39.712Z,83.59
2022-10-19T04:42:07.500Z,83.37
2022-10-19T04:44:35.305Z,82.95
2022-10-19T04:47:03.093Z,82.76
2022-10-19T04:49:31.747Z,82.46
2022-10-19T04:51:59.569Z,82.30
2022-10-19T04:54:27.383Z,82.19
2022-10-19T04:56:55.293Z,81.86
2022-10-19T04:59:23.153Z,81.84
2022-10-19T05:01:51.002Z,81.76
2022-10-19T05:04:18.868Z,81.70
2022-10-19T05:06:46.669Z,81.74
2022-10-19T05:09:14.497Z,81.84
2022-10-19T05:11:42.332Z,82.03
2022-10-19T05:14:10.888Z,81.98
2022-10-19T05:16:38.657Z,81.90
2022-10-19T05:19:06.479Z,82.12
2022-10-19T05:21:34.337Z,82.10
2022-10-19T05:24:02.190Z,82.02
2022-10-19T05:26:30.319Z,81.47
2022-10-19T05:29:02.707Z,81.11
2022-10-19T05:31:32.872Z,81.12
2022-10-19T05:34:01.265Z,81.10
2022-10-19T05:36:40.772Z,81.15
2022-10-19T05:39:14.017Z,81.21
2022-10-19T05:41:46.575Z,81.29
2022-10-19T05:44:17.306Z,81.11
2022-10-19T05:46:45.748Z,81.33
2022-10-19T05:49:15.069Z,81.28
2022-10-19T05:51:43.332Z,81.42
2022-10-19T05:54:12.981Z,81.26
2022-10-19T05:56:42.332Z,80.80
2022-10-19T05:59:20.256Z,80.76
2022-10-19T06:01:48.916Z,80.59
2022-10-19T06:06:49.487Z,80.05
2022-10-19T06:09:17.276Z,79.77
2022-10-19T06:11:45.049Z,79.24
2022-10-19T06:14:15.551Z,78.87
2022-10-19T06:16:46.129Z,78.97
2022-10-19T06:19:14.328Z,79.04
2022-10-19T06:21:45.828Z,79.01
2022-10-19T06:24:14.517Z,78.77
2022-10-19T06:26:42.692Z,78.77
2022-10-19T06:29:10.791Z,78.79
2022-10-19T06:31:38.699Z,78.70
2022-10-19T06:34:06.903Z,78.43
2022-10-19T06:36:35.414Z,78.34
2022-10-19T06:39:04.289Z,78.32
2022-10-19T06:41:34.269Z,78.27
2022-10-19T06:44:14.271Z,78.20
2022-10-19T06:46:41.980Z,77.71
2022-10-19T06:49:13.458Z,77.59
2022-10-19T06:51:41.448Z,77.34
2022-10-19T06:54:09.362Z,76.75
2022-10-19T06:56:37.232Z,76.54
2022-10-19T06:59:05.182Z,76.11
2022-10-19T07:01:33.394Z,75.57
2022-10-19T07:04:01.196Z,75.14
2022-10-19T07:06:29.113Z,74.78
2022-10-19T07:08:57.184Z,74.21
2022-10-19T07:11:25.208Z,73.69
2022-10-19T07:13:53.752Z,73.16
2022-10-19T07:16:22.549Z,73.36
2022-10-19T07:18:52.957Z,73.50
2022-10-19T07:21:22.572Z,73.30
2022-10-19T07:23:51.064Z,72.74
2022-10-19T07:26:23.831Z,71.99
2022-10-19T07:28:52.088Z,71.14
2022-10-19T07:31:22.302Z,70.50
2022-10-19T07:33:58.752Z,69.87
2022-10-19T07:36:28.105Z,69.58
2022-10-19T07:38:56.114Z,69.52
2022-10-19T07:41:25.854Z,69.77
2022-10-19T07:43:54.418Z,69.86
2022-10-19T07:46:25.483Z,69.53
2022-10-19T07:48:54.126Z,69.55
2022-10-19T07:51:22.851Z,69.31
2022-10-19T07:53:50.799Z,68.89
2022-10-19T07:56:21.941Z,68.20
2022-10-19T07:58:52.620Z,68.01
2022-10-19T08:01:25.886Z,68.05
2022-10-19T08:06:44.015Z,68.32
2022-10-19T08:09:27.671Z,68.10
2022-10-19T08:11:59.778Z,67.47
2022-10-19T08:14:27.923Z,67.20
2022-10-19T08:16:55.851Z,67.18
2022-10-19T08:19:24.472Z,67.29
2022-10-19T08:21:52.393Z,66.83
2022-10-19T08:24:21.335Z,66.93
2022-10-19T08:26:51.468Z,66.92
2022-10-19T08:29:20.774Z,66.63
2022-10-19T08:31:49.781Z,65.95
2022-10-19T08:34:17.814Z,65.22
2022-10-19T08:36:45.951Z,64.43
2022-10-19T08:39:14.611Z,64.43
2022-10-19T08:42:03.469Z,64.61
2022-10-19T08:44:43.682Z,64.44
2022-10-19T08:47:23.275Z,64.63
2022-10-19T08:50:01.464Z,64.46
2022-10-19T08:52:34.589Z,64.03
2022-10-19T08:55:13.099Z,63.93
2022-10-19T08:58:10.359Z,63.92
2022-10-19T09:01:00.976Z,64.10
2022-10-19T09:03:55.338Z,63.96
2022-10-19T09:06:33.988Z,64.31
2022-10-19T09:09:01.950Z,64.65
2022-10-19T09:11:38.382Z,65.05
2022-10-19T09:14:15.620Z,65.34
2022-10-19T09:16:43.385Z,65.40
2022-10-19T09:19:26.026Z,65.47
2022-10-19T09:22:00.746Z,65.45
2022-10-19T09:24:29.416Z,65.41
2022-10-19T09:27:01.738Z,65.23
2022-10-19T09:29:37.333Z,64.68
2022-10-19T09:32:33.940Z,63.52
2022-10-19T09:35:23.063Z,63.29
2022-10-19T09:37:51.527Z,63.16
2022-10-19T09:40:26.575Z,63.24
2022-10-19T09:42:58.471Z,62.98
2022-10-19T09:45:46.233Z,61.94
2022-10-19T09:48:20.700Z,61.19
2022-10-19T09:50:55.589Z,57.82
2022-10-19T09:53:24.673Z,57.93
2022-10-19T09:56:04.257Z,57.96
2022-10-19T09:58:33.271Z,59.06
2022-10-19T10:01:03.213Z,58.73
2022-10-19T10:03:43.695Z,58.14
2022-10-19T10:06:17.236Z,56.75
2022-10-19T10:08:48.674Z,57.12
2022-10-19T10:11:23.519Z,57.51
2022-10-19T10:13:54.523Z,57.52
2022-10-19T10:16:24.913Z,57.98
2022-10-19T10:19:02.797Z,58.30
2022-10-19T10:21:47.480Z,59.44
2022-10-19T10:24:16.599Z,59.84
2022-10-19T10:26:47.124Z,59.96
2022-10-19T10:29:20.215Z,59.02
2022-10-19T10:31:52.822Z,59.01
2022-10-19T10:34:50.097Z,58.73
2022-10-19T10:37:23.859Z,58.89
2022-10-19T10:39:56.682Z,58.50
2022-10-19T10:42:48.182Z,58.89
2022-10-19T10:45:39.356Z,58.20
2022-10-19T10:48:15.398Z,57.43
2022-10-19T10:50:44.087Z,57.37
2022-10-19T10:53:33.995Z,57.19
2022-10-19T10:56:02.115Z,55.41
2022-10-19T10:58:40.207Z,55.36
2022-10-19T11:01:19.331Z,55.58
2022-10-19T11:03:59.921Z,56.14
2022-10-19T11:06:27.918Z,55.04
2022-10-19T11:09:11.722Z,55.41
2022-10-19T11:11:47.439Z,54.59
2022-10-19T11:14:47.644Z,53.11
2022-10-19T11:17:24.997Z,53.00
2022-10-19T11:19:53.794Z,53.56
2022-10-19T11:22:29.716Z,53.71
2022-10-19T11:25:33.715Z,53.78
2022-10-19T11:28:21.097Z,54.03
2022-10-19T11:31:10.812Z,53.96
2022-10-19T11:34:12.332Z,53.58
2022-10-19T11:36:53.905Z,53.87
2022-10-19T11:39:34.158Z,54.35
2022-10-19T11:42:13.064Z,53.44
2022-10-19T11:45:32.523Z,54.56
2022-10-19T11:48:24.431Z,55.24
2022-10-19T11:51:17.399Z,55.04
2022-10-19T11:54:23.435Z,54.90
2022-10-19T11:57:14.086Z,54.86
2022-10-19T12:00:15.461Z,55.65
2022-10-19T12:02:48.844Z,56.58
2022-10-19T12:05:24.757Z,56.76
2022-10-19T12:08:08.738Z,57.34
2022-10-19T12:11:23.491Z,57.83
2022-10-19T12:13:56.627Z,57.90
2022-10-19T12:16:36.573Z,58.31
2022-10-19T12:19:07.221Z,58.96
2022-10-19T12:21:41.137Z,59.36
2022-10-19T12:24:23.335Z,58.89
2022-10-19T12:26:53.904Z,59.09
2022-10-19T12:29:23.488Z,59.19
2022-10-19T12:31:53.850Z,59.43
2022-10-19T12:34:45.412Z,59.45
2022-10-19T12:37:39.272Z,59.45
2022-10-19T12:40:28.480Z,59.33
2022-10-19T12:43:22.054Z,59.10
2022-10-19T12:46:16.304Z,59.05
2022-10-19T12:48:44.146Z,59.21
2022-10-19T12:51:15.043Z,59.30
2022-10-19T12:53:49.059Z,59.21
2022-10-19T12:56:19.919Z,59.26
2022-10-19T12:58:59.867Z,59.55
2022-10-19T13:01:33.764Z,59.60
2022-10-19T13:04:07.989Z,59.79
2022-10-19T13:06:39.645Z,59.86
2022-10-19T13:09:10.171Z,59.86
2022-10-19T13:12:19.772Z,59.97
2022-10-19T13:14:57.020Z,60.23
2022-10-19T13:17:34.368Z,60.40
2022-10-19T13:20:17.042Z,60.58
2022-10-19T13:22:50.917Z,60.67
2022-10-19T13:25:26.964Z,60.79
2022-10-19T13:27:56.312Z,60.84
2022-10-19T13:30:39.444Z,61.16
2022-10-19T13:33:25.723Z,61.26
2022-10-19T13:35:59.482Z,61.65
2022-10-19T13:38:34.057Z,61.86
2022-10-19T13:41:18.755Z,61.95
2022-10-19T13:44:03.500Z,62.14
2022-10-19T13:46:31.411Z,62.30
2022-10-19T13:49:02.546Z,62.28
2022-10-19T13:51:52.263Z,62.66
2022-10-19T13:54:57.822Z,63.07
2022-10-19T13:57:28.733Z,63.51
2022-10-19T14:00:18.253Z,63.93
2022-10-19T14:03:19.292Z,64.16
2022-10-19T14:06:28.622Z,64.45
2022-10-19T14:09:18.724Z,64.96
2022-10-19T14:12:26.048Z,65.34
2022-10-19T14:14:54.590Z,65.57
2022-10-19T14:17:25.626Z,65.99
2022-10-19T14:19:57.231Z,66.23
2022-10-19T14:22:29.882Z,66.82
2022-10-19T14:25:07.699Z,67.26
2022-10-19T14:27:38.713Z,67.55
2022-10-19T14:30:07.613Z,67.78
2022-10-19T14:32:35.676Z,67.86
2022-10-19T14:35:15.982Z,67.93
2022-10-19T14:37:44.679Z,68.13
2022-10-19T14:40:26.513Z,68.17
2022-10-19T14:42:58.472Z,68.32
2022-10-19T14:45:32.165Z,68.32
2022-10-19T14:48:02.916Z,68.34
2022-10-19T14:50:45.172Z,68.56
2022-10-19T14:53:36.299Z,68.65
2022-10-19T14:56:43.101Z,68.66
2022-10-19T14:59:46.710Z,68.81
2022-10-19T15:02:59.223Z,68.85
2022-10-19T15:05:31.279Z,68.82
2022-10-19T15:08:10.701Z,68.97
2022-10-19T15:10:44.326Z,69.08
2022-10-19T15:13:38.689Z,69.17
2022-10-19T15:16:06.729Z,69.22
2022-10-19T15:18:49.926Z,69.27
2022-10-19T15:21:20.398Z,69.46
2022-10-19T15:23:50.753Z,69.47
2022-10-19T15:26:28.751Z,69.54
2022-10-19T15:29:09.035Z,69.57
2022-10-19T15:31:36.935Z,69.69
2022-10-19T15:34:05.458Z,69.66
2022-10-19T15:36:33.632Z,69.71
2022-10-19T15:39:18.474Z,69.83
2022-10-19T15:41:53.794Z,69.79
2022-10-19T15:44:34.561Z,69.92
2022-10-19T15:47:14.615Z,70.06
2022-10-19T15:49:42.395Z,70.35
2022-10-19T15:52:32.190Z,70.40
2022-10-19T15:55:01.461Z,70.62
2022-10-19T15:57:34.020Z,70.86
2022-10-19T16:00:12.438Z,71.30
2022-10-19T16:02:40.893Z,71.42
2022-10-19T16:05:08.924Z,71.92
2022-10-19T16:07:39.578Z,72.33
2022-10-19T16:10:14.708Z,72.63
2022-10-19T16:12:42.639Z,72.85
2022-10-19T16:15:16.389Z,72.85
2022-10-19T16:17:47.431Z,72.90
2022-10-19T16:20:15.765Z,72.92
2022-10-19T16:22:44.879Z,73.24
2022-10-19T16:25:13.053Z,73.59
2022-10-19T16:27:41.787Z,73.74
2022-10-19T16:30:10.572Z,73.82
2022-10-19T16:32:40.047Z,73.87
2022-10-19T16:35:08.854Z,74.01
2022-10-19T16:37:37.333Z,74.04
2022-10-19T16:40:07.332Z,74.15
2022-10-19T16:42:35.882Z,74.29
2022-10-19T16:45:04.225Z,74.48
2022-10-19T16:47:32.637Z,74.56
2022-10-19T16:50:02.265Z,74.73
2022-10-19T16:52:32.918Z,74.89
2022-10-19T16:55:01.144Z,74.94
2022-10-19T16:57:29.188Z,74.90
2022-10-19T16:59:57.311Z,74.91
2022-10-19T17:02:25.202Z,74.96
2022-10-19T17:04:53.190Z,75.01
2022-10-19T17:07:20.997Z,74.96
2022-10-19T17:09:52.180Z,74.92
2022-10-19T17:12:22.568Z,75.02
2022-10-19T17:14:51.412Z,75.07
2022-10-19T17:17:19.366Z,74.99
2022-10-19T17:19:48.347Z,74.95
2022-10-19T17:22:16.255Z,75.11
2022-10-19T17:24:46.324Z,75.10
2022-10-19T17:27:14.684Z,75.21
2022-10-19T17:29:43.611Z,75.22
2022-10-19T17:32:11.399Z,75.30
2022-10-19T17:34:39.216Z,75.24
2022-10-19T17:37:07.174Z,75.26
2022-10-19T17:39:35.077Z,75.24
2022-10-19T17:42:05.020Z,75.23
2022-10-19T17:44:32.876Z,75.28
2022-10-19T17:47:00.795Z,75.40
2022-10-19T17:49:30.073Z,75.48
2022-10-19T17:51:58.468Z,75.52
2022-10-19T17:54:26.314Z,75.70
2022-10-19T17:56:54.321Z,75.86
2022-10-19T17:59:30.147Z,76.15
2022-10-19T18:02:06.419Z,76.50
2022-10-19T18:07:07.719Z,76.76
2022-10-19T18:09:35.528Z,76.77
2022-10-19T18:12:07.103Z,77.04
2022-10-19T18:14:35.558Z,77.11
2022-10-19T18:17:04.218Z,77.24
2022-10-19T18:19:32.326Z,77.36
2022-10-19T18:22:00.135Z,77.42
2022-10-19T18:24:28.331Z,77.31
2022-10-19T18:26:56.738Z,77.49
2022-10-19T18:29:26.654Z,77.53
2022-10-19T18:31:55.132Z,77.57
2022-10-19T18:34:25.645Z,77.66
2022-10-19T18:36:54.187Z,77.60
2022-10-19T18:39:22.894Z,77.59
2022-10-19T18:41:54.821Z,77.70
2022-10-19T18:44:26.526Z,77.71
2022-10-19T18:46:57.482Z,77.76
2022-10-19T18:49:25.808Z,77.73
2022-10-19T18:51:55.760Z,77.68
2022-10-19T18:54:28.037Z,77.74
2022-10-19T18:56:56.072Z,77.81
2022-10-19T18:59:24.003Z,77.64
2022-10-19T19:01:52.355Z,77.51
2022-10-19T19:04:20.709Z,77.21
2022-10-19T19:06:48.723Z,76.83
2022-10-19T19:09:17.579Z,76.65
2022-10-19T19:11:45.814Z,76.44
2022-10-19T19:14:16.491Z,76.27
2022-10-19T19:16:45.160Z,76.24
2022-10-19T19:19:15.378Z,76.17
2022-10-19T19:21:44.740Z,75.98
2022-10-19T19:24:16.476Z,75.88
2022-10-19T19:26:49.448Z,75.83
2022-10-19T19:29:18.508Z,75.72
2022-10-19T19:31:47.966Z,75.56
2022-10-19T19:34:16.102Z,75.37
2022-10-19T19:36:48.357Z,75.18
2022-10-19T19:39:20.118Z,75.00
2022-10-19T19:41:50.041Z,74.92
2022-10-19T19:44:18.319Z,74.81
2022-10-19T19:46:46.718Z,74.59
2022-10-19T19:49:14.778Z,74.46
2022-10-19T19:51:43.049Z,74.33
2022-10-19T19:54:12.250Z,74.23
2022-10-19T19:56:42.519Z,74.18
2022-10-19T19:59:12.617Z,74.16
2022-10-19T20:01:41.215Z,73.97
2022-10-19T20:04:10.108Z,73.81
2022-10-19T20:06:40.328Z,73.46
2022-10-19T20:09:09.184Z,73.10
2022-10-19T20:11:42.135Z,72.79
2022-10-19T20:14:12.604Z,72.68
2022-10-19T20:16:40.695Z,72.36
2022-10-19T20:19:11.577Z,72.17
2022-10-19T20:21:40.782Z,72.05
2022-10-19T20:24:09.316Z,71.92
2022-10-19T20:26:38.180Z,71.85
2022-10-19T20:29:06.225Z,71.64
2022-10-19T20:31:40.345Z,71.70
2022-10-19T20:34:14.145Z,71.40
2022-10-19T20:36:42.767Z,71.23
2022-10-19T20:39:10.773Z,70.95
2022-10-19T20:41:38.986Z,70.77
2022-10-19T20:44:06.934Z,70.27
2022-10-19T20:46:37.157Z,70.15
2022-10-19T20:49:05.243Z,70.15
2022-10-19T20:51:36.935Z,70.02
2022-10-19T20:54:08.465Z,69.66
2022-10-19T20:56:38.416Z,69.20
2022-10-19T20:59:09.196Z,69.05
2022-10-19T21:01:39.061Z,68.95
2022-10-19T21:04:10.296Z,68.83
2022-10-19T21:06:41.553Z,68.72
2022-10-19T21:09:10.844Z,68.44
2022-10-19T21:11:40.984Z,68.42
2022-10-19T21:14:22.331Z,67.91
2022-10-19T21:16:53.162Z,67.70
2022-10-19T21:19:23.839Z,67.33
2022-10-19T21:21:55.756Z,67.07
2022-10-19T21:24:27.010Z,66.70
2022-10-19T21:26:55.189Z,66.56
2022-10-19T21:29:23.151Z,66.52
2022-10-19T21:31:53.201Z,66.52
2022-10-19T21:34:24.614Z,66.36
2022-10-19T21:36:52.853Z,66.30
2022-10-19T21:39:21.317Z,66.42
2022-10-19T21:41:49.888Z,66.29
2022-10-19T21:44:18.851Z,66.16
2022-10-19T21:46:50.175Z,66.29
2022-10-19T21:49:18.427Z,66.27
2022-10-19T21:51:49.938Z,66.20
2022-10-19T21:54:20.937Z,66.16
2022-10-19T21:56:49.268Z,66.11
2022-10-19T21:59:17.617Z,66.09
2022-10-19T22:01:45.535Z,66.09
2022-10-19T22:04:16.157Z,66.33
2022-10-19T22:06:44.866Z,66.27
2022-10-19T22:09:17.357Z,66.31
2022-10-19T22:11:45.448Z,66.53
2022-10-19T22:14:15.450Z,66.47
2022-10-19T22:16:43.432Z,66.39
2022-10-19T22:19:11.882Z,66.34
2022-10-19T22:21:40.258Z,66.41
2022-10-19T22:24:12.462Z,66.42
2022-10-19T22:26:43.347Z,66.37
2022-10-19T22:29:11.491Z,66.42
2022-10-19T22:31:40.133Z,66.56
2022-10-19T22:34:11.773Z,66.62
2022-10-19T22:36:39.568Z,66.74
2022-10-19T22:39:07.809Z,66.85
2022-10-19T22:41:35.663Z,67.02
2022-10-19T22:44:03.646Z,67.16
2022-10-19T22:46:31.716Z,67.33
2022-10-19T22:48:59.613Z,67.53
2022-10-19T22:51:27.542Z,67.63
2022-10-19T22:53:55.637Z,67.86
2022-10-19T22:56:23.737Z,68.00
2022-10-19T22:58:51.574Z,68.12
2022-10-19T23:01:19.442Z,68.19
2022-10-19T23:03:47.264Z,68.32
2022-10-19T23:06:15.679Z,68.52
2022-10-19T23:08:44.332Z,68.66
2022-10-19T23:11:12.654Z,68.71
2022-10-19T23:13:41.270Z,68.94
2022-10-19T23:16:10.105Z,69.13
2022-10-19T23:18:40.395Z,69.19
2022-10-19T23:21:12.660Z,69.30
2022-10-19T23:23:41.442Z,69.43
2022-10-19T23:26:18.538Z,69.54
2022-10-19T23:28:48.790Z,69.68
2022-10-19T23:31:20.646Z,69.72
2022-10-19T23:33:48.438Z,69.79
2022-10-19T23:36:22.337Z,69.83
2022-10-19T23:38:52.008Z,69.91
2022-10-19T23:41:20.650Z,70.01
2022-10-19T23:43:48.917Z,70.17
2022-10-19T23:46:16.760Z,70.34
2022-10-19T23:48:44.574Z,70.56
2022-10-19T23:51:15.161Z,70.67
2022-10-19T23:53:45.676Z,70.84
2022-10-19T23:56:18.269Z,70.97
2022-10-19T23:58:46.831Z,71.19
